Time;durP1;ratioP1;P1;durP2;ratioP2;P2;SDS_P1;SDS_P2;PMS_P1;PMS_P2;Temp;Humidity;BMP_temperature;BMP_pressure;BME280_temperature;BME280_humidity;BME280_pressure;Samples;Min_cycle;Max_cycle;Signal;HPM_P1;HPM_P2
2021/09/21 00:00:37;;;;;;;;;28.00;26.25;;;;;18.20;60.05;101998.09;4934309;28;56260;-76
2021/09/21 00:03:03;;;;;;;;;36.00;27.00;;;;;18.16;59.76;101995.44;4942148;28;45242;-77
2021/09/21 00:05:28;;;;;;;;;36.00;30.00;;;;;18.13;60.54;102002.44;4942101;28;45233;-76
2021/09/21 00:07:54;;;;;;;;;34.50;26.75;;;;;18.10;59.83;102001.50;4935731;28;60108;-77
2021/09/21 00:10:19;;;;;;;;;26.75;23.50;;;;;18.07;60.33;102004.97;4922277;28;59801;-77
2021/09/21 00:12:44;;;;;;;;;26.25;24.00;;;;;18.02;59.60;101998.75;4922737;28;45722;-77
2021/09/21 00:15:12;;;;;;;;;26.75;23.00;;;;;17.99;59.30;102003.09;4911686;28;45508;-77
2021/09/21 00:17:38;;;;;;;;;25.50;22.50;;;;;17.95;59.38;102015.31;4940062;28;45453;-77
2021/09/21 00:20:04;;;;;;;;;27.75;20.75;;;;;17.92;59.45;102018.78;4924769;28;45712;-76
2021/09/21 00:22:29;;;;;;;;;29.50;22.50;;;;;17.87;59.54;102011.66;4941644;28;45550;-75
2021/09/21 00:24:55;;;;;;;;;25.25;22.25;;;;;17.84;59.12;102023.03;4941564;28;52260;-76
2021/09/21 00:27:20;;;;;;;;;22.25;21.50;;;;;17.80;59.94;102026.47;4941021;28;60327;-76
2021/09/21 00:29:46;;;;;;;;;25.25;23.00;;;;;17.78;59.34;102033.47;4939937;28;45484;-77
2021/09/21 00:32:18;;;;;;;;;28.75;26.00;;;;;17.77;59.54;102031.69;4941806;28;45308;-77
2021/09/21 00:34:45;;;;;;;;;27.00;24.75;;;;;17.74;59.06;102034.28;4942041;28;45394;-76
2021/09/21 00:37:13;;;;;;;;;29.00;25.50;;;;;17.72;59.93;102030.72;4924465;28;46133;-76
2021/09/21 00:39:39;;;;;;;;;26.75;24.75;;;;;17.70;58.89;102029.84;4916681;28;45461;-75
2021/09/21 00:42:05;;;;;;;;;30.50;26.75;;;;;17.67;58.99;102024.50;4905541;28;45369;-75
2021/09/21 00:44:30;;;;;;;;;26.75;23.25;;;;;17.67;59.66;102027.13;4922749;28;45357;-75
2021/09/21 00:46:56;;;;;;;;;29.00;25.75;;;;;17.68;59.16;102028.91;4922114;28;45465;-76
2021/09/21 00:49:21;;;;;;;;;29.50;26.75;;;;;17.70;58.94;102030.69;4923274;28;45306;-76
2021/09/21 00:51:46;;;;;;;;;34.25;27.50;;;;;17.69;59.63;102025.44;4905207;28;45445;-75
2021/09/21 00:54:12;;;;;;;;;31.50;25.50;;;;;17.69;59.10;102035.94;4915650;28;45224;-75
2021/09/21 00:56:37;;;;;;;;;30.75;26.75;;;;;17.68;59.26;102037.69;4940798;28;60873;-75
2021/09/21 00:59:03;;;;;;;;;31.75;26.75;;;;;17.69;59.26;102028.06;4920734;28;45325;-75
2021/09/21 01:01:28;;;;;;;;;30.75;27.50;;;;;17.67;58.89;102029.75;4922040;28;45360;-75
2021/09/21 01:03:54;;;;;;;;;36.75;29.50;;;;;17.62;58.49;102030.56;4941250;28;45365;-75
2021/09/21 01:06:19;;;;;;;;;30.50;26.00;;;;;17.60;59.39;102021.78;4923494;28;45467;-75
2021/09/21 01:08:45;;;;;;;;;38.75;29.00;;;;;17.58;58.52;102023.50;4940244;28;55995;-75
2021/09/21 01:11:11;;;;;;;;;27.75;24.50;;;;;17.57;58.62;102037.53;4939282;28;45438;-75
2021/09/21 01:13:37;;;;;;;;;34.00;27.25;;;;;17.54;59.19;102034.81;4923428;28;45342;-75
2021/09/21 01:16:02;;;;;;;;;29.00;26.25;;;;;17.50;58.59;102043.53;4905589;28;46206;-75
2021/09/21 01:18:27;;;;;;;;;34.75;27.75;;;;;17.49;58.52;102051.38;4904688;28;45224;-75
2021/09/21 01:21:03;;;;;;;;;39.75;30.00;;;;;17.44;58.51;102043.44;4922924;28;45403;-75
2021/09/21 01:23:29;;;;;;;;;36.75;29.75;;;;;17.41;59.01;102038.13;4934294;28;45230;-75
2021/09/21 01:25:57;;;;;;;;;36.25;28.00;;;;;17.36;58.89;102038.03;4940266;28;46430;-75
2021/09/21 01:28:22;;;;;;;;;31.75;27.00;;;;;17.32;58.60;102044.09;4940498;28;51693;-75
2021/09/21 01:30:48;;;;;;;;;34.00;27.50;;;;;17.29;58.96;102050.19;4938773;28;50980;-75
2021/09/21 01:33:18;;;;;;;;;30.50;28.00;;;;;17.25;58.37;102055.38;4939984;28;50954;-75
2021/09/21 01:35:44;;;;;;;;;30.00;28.50;;;;;17.21;58.79;102045.66;4940354;28;46341;-75
2021/09/21 01:38:09;;;;;;;;;29.00;27.75;;;;;17.17;58.73;102042.09;4939976;28;58280;-75
2021/09/21 01:40:34;;;;;;;;;35.00;31.25;;;;;17.13;59.15;102048.13;4935678;28;51594;-75
2021/09/21 01:43:00;;;;;;;;;38.00;28.75;;;;;17.12;59.03;102047.28;4921668;28;49558;-75
2021/09/21 01:45:25;;;;;;;;;34.00;30.00;;;;;17.12;59.08;102044.63;4923386;28;46086;-75
2021/09/21 01:47:51;;;;;;;;;38.00;32.50;;;;;17.09;58.36;102046.31;4923362;28;45357;-76
2021/09/21 01:53:00;;;;;;;;;36.75;31.25;;;;;17.06;58.97;102049.81;4938467;28;45292;-75
2021/09/21 02:00:44;;;;;;;;;32.50;30.50;;;;;17.05;58.71;102060.25;4928984;28;45219;-76
2021/09/21 02:03:10;;;;;;;;;38.75;30.50;;;;;17.01;58.78;102058.44;4922099;28;45512;-76
2021/09/21 02:05:35;;;;;;;;;33.00;31.00;;;;;17.00;58.76;102064.56;4920179;28;63812;-76
2021/09/21 02:08:00;;;;;;;;;34.25;30.00;;;;;16.98;59.43;102061.91;4920640;28;47026;-75
2021/09/21 02:10:26;;;;;;;;;34.25;30.00;;;;;16.98;59.55;102066.25;4920807;28;50066;-75
2021/09/21 02:12:51;;;;;;;;;34.75;29.25;;;;;16.99;59.69;102068.91;4923589;28;50115;-75
2021/09/21 02:15:17;;;;;;;;;36.75;30.50;;;;;16.98;59.13;102067.16;4921655;28;62338;-75
2021/09/21 02:17:42;;;;;;;;;42.25;32.00;;;;;16.97;59.14;102065.38;4939637;28;45352;-76
2021/09/21 02:20:08;;;;;;;;;33.25;28.50;;;;;16.94;59.25;102071.47;4940278;28;45351;-76
2021/09/21 02:22:33;;;;;;;;;37.50;30.50;;;;;16.92;59.25;102065.28;4940217;28;45479;-75
2021/09/21 02:24:58;;;;;;;;;34.25;30.00;;;;;16.92;59.60;102081.03;4937585;28;56368;-75
2021/09/21 02:27:25;;;;;;;;;40.25;32.75;;;;;16.89;59.45;102077.47;4939944;28;45339;-76
2021/09/21 02:29:50;;;;;;;;;37.25;32.00;;;;;16.86;59.70;102080.91;4940155;28;45320;-76
2021/09/21 02:32:16;;;;;;;;;38.00;31.25;;;;;16.83;59.03;102075.59;4940090;28;45312;-76
2021/09/21 02:34:44;;;;;;;;;35.00;30.00;;;;;16.82;59.50;102080.81;4937843;28;54482;-76
2021/09/21 02:37:13;;;;;;;;;41.50;31.50;;;;;16.80;59.39;102091.25;4939824;28;45578;-76
2021/09/21 02:39:38;;;;;;;;;32.25;29.00;;;;;16.78;59.36;102090.38;4922711;28;45352;-77
2021/09/21 02:42:04;;;;;;;;;37.75;31.25;;;;;16.78;59.40;102095.63;4921233;28;45310;-76
2021/09/21 02:44:29;;;;;;;;;36.50;30.25;;;;;16.77;59.48;102089.50;4932693;28;45527;-76
2021/09/21 02:46:54;;;;;;;;;38.00;31.50;;;;;16.76;59.49;102084.19;4939183;28;55169;-76
2021/09/21 02:49:20;;;;;;;;;33.75;31.25;;;;;16.76;59.58;102085.09;4939478;28;49747;-75
2021/09/21 02:51:45;;;;;;;;;37.50;32.00;;;;;16.76;59.71;102079.84;4939346;28;50081;-76
2021/09/21 02:54:11;;;;;;;;;37.25;30.50;;;;;16.76;59.64;102081.56;4937650;28;45467;-76
2021/09/21 02:56:36;;;;;;;;;34.25;30.25;;;;;16.74;59.81;102071.03;4939622;28;45408;-76
2021/09/21 02:59:02;;;;;;;;;38.00;30.50;;;;;16.71;59.54;102070.09;4939234;28;49990;-76
2021/09/21 03:01:27;;;;;;;;;39.25;32.75;;;;;16.70;59.97;102070.94;4939597;28;45387;-75
2021/09/21 03:03:57;;;;;;;;;36.00;32.25;;;;;16.68;59.92;102077.88;4934880;28;45325;-76
2021/09/21 03:06:30;;;;;;;;;45.00;35.00;;;;;16.66;59.69;102076.97;4920314;28;45514;-76
2021/09/21 03:09:06;;;;;;;;;43.75;33.75;;;;;16.63;59.55;102076.06;4904354;28;45397;-76
2021/09/21 03:11:38;;;;;;;;;42.75;33.25;;;;;16.60;60.23;102081.25;4920271;28;45520;-75
2021/09/21 03:19:24;;;;;;;;;36.25;32.75;;;;;16.54;59.94;102101.22;4938425;28;45396;-76
2021/09/21 03:21:53;;;;;;;;;42.00;34.00;;;;;16.51;60.33;102091.53;4939606;28;45238;-76
2021/09/21 03:24:18;;;;;;;;;38.50;33.25;;;;;16.49;60.16;102092.38;4937277;28;45499;-75
2021/09/21 03:26:43;;;;;;;;;47.00;35.50;;;;;16.46;60.19;102093.22;4921772;28;48183;-76
2021/09/21 03:29:09;;;;;;;;;43.25;36.00;;;;;16.46;60.47;102098.47;4934752;28;45766;-76
2021/09/21 03:31:34;;;;;;;;;43.50;34.75;;;;;16.45;60.70;102096.69;4934089;28;45562;-75
2021/09/21 03:34:00;;;;;;;;;42.00;34.75;;;;;16.44;60.69;102100.16;4925670;28;45860;-76
2021/09/21 03:36:25;;;;;;;;;47.00;35.25;;;;;16.43;60.65;102103.63;4920846;28;45392;-76
2021/09/21 03:38:50;;;;;;;;;46.25;36.00;;;;;16.42;60.26;102100.13;4919406;28;54364;-76
2021/09/21 03:41:16;;;;;;;;;45.75;34.25;;;;;16.41;60.42;102102.72;4931297;28;48383;-76
2021/09/21 03:43:42;;;;;;;;;43.50;34.25;;;;;16.40;60.69;102112.34;4957747;28;46337;-75
2021/09/21 03:46:07;;;;;;;;;45.25;34.25;;;;;16.39;60.85;102105.31;4944792;28;45383;-75
2021/09/21 03:48:32;;;;;;;;;45.00;39.00;;;;;16.38;60.04;102108.78;4937003;28;46958;-76
2021/09/21 03:50:58;;;;;;;;;45.50;36.50;;;;;16.38;60.41;102106.16;4937867;28;45554;-75
2021/09/21 03:53:23;;;;;;;;;47.50;36.25;;;;;16.40;60.85;102100.94;4938874;28;45912;-75
2021/09/21 03:55:49;;;;;;;;;44.25;36.25;;;;;16.39;60.26;102100.06;4932551;28;54054;-76
2021/09/21 03:58:14;;;;;;;;;45.50;35.25;;;;;16.40;60.22;102101.84;4919425;28;45884;-76
2021/09/21 04:00:39;;;;;;;;;46.50;36.00;;;;;16.40;60.08;102098.31;4919813;28;45183;-76
2021/09/21 04:03:05;;;;;;;;;42.25;33.25;;;;;16.42;60.14;102117.63;4918881;28;55925;-76
2021/09/21 04:05:30;;;;;;;;;46.25;36.50;;;;;16.42;60.24;102113.25;4923800;28;50628;-76
2021/09/21 04:07:56;;;;;;;;;48.75;38.50;;;;;16.42;59.92;102118.47;4919491;28;45714;-76
2021/09/21 04:10:22;;;;;;;;;50.75;39.00;;;;;16.43;60.15;102119.34;4919643;28;45341;-76
2021/09/21 04:12:47;;;;;;;;;49.00;37.00;;;;;16.42;59.93;102122.84;4919376;28;45369;-76
2021/09/21 04:15:12;;;;;;;;;49.00;38.00;;;;;16.44;59.98;102122.03;4919199;28;45305;-76
2021/09/21 04:17:38;;;;;;;;;47.00;35.50;;;;;16.41;60.08;102119.31;4920379;28;45595;-76
2021/09/21 04:20:04;;;;;;;;;49.00;36.00;;;;;16.39;59.91;102122.78;4919238;28;51763;-76
2021/09/21 04:22:29;;;;;;;;;48.50;37.00;;;;;16.38;59.70;102127.13;4936698;28;45376;-76
2021/09/21 04:24:55;;;;;;;;;49.75;37.25;;;;;16.38;60.34;102131.50;4937901;28;45399;-77
2021/09/21 04:27:21;;;;;;;;;46.75;37.50;;;;;16.34;59.75;102141.03;4936760;28;45242;-77
2021/09/21 04:29:49;;;;;;;;;49.25;38.00;;;;;16.31;59.54;102137.44;4938253;28;45436;-77
2021/09/21 04:32:15;;;;;;;;;45.50;36.00;;;;;16.29;60.23;102142.66;4933907;28;45403;-76
2021/09/21 04:34:40;;;;;;;;;47.75;36.00;;;;;16.27;60.05;102147.00;4934276;28;45251;-76
2021/09/21 04:37:05;;;;;;;;;49.50;36.00;;;;;16.23;59.83;102143.41;4917033;28;50239;-76
2021/09/21 04:39:31;;;;;;;;;49.75;38.75;;;;;16.20;59.69;102145.97;4938811;28;45523;-76
2021/09/21 04:41:57;;;;;;;;;46.25;36.75;;;;;16.16;59.92;102146.75;4932076;28;57571;-76
2021/09/21 04:44:22;;;;;;;;;45.00;36.25;;;;;16.12;59.89;102150.16;4935470;28;45464;-76
2021/09/21 04:46:48;;;;;;;;;50.50;37.50;;;;;16.11;59.71;102154.53;4931859;28;55475;-76
2021/09/21 04:49:13;;;;;;;;;48.75;38.00;;;;;16.07;60.29;102147.44;4940545;28;45309;-76
2021/09/21 04:51:39;;;;;;;;;50.25;38.75;;;;;16.06;60.08;102152.63;4925915;28;45607;-75
2021/09/21 04:54:05;;;;;;;;;47.25;36.00;;;;;16.02;60.07;102151.66;4928235;28;45475;-75
2021/09/21 04:56:31;;;;;;;;;46.75;38.50;;;;;15.95;60.13;102155.00;4933671;28;45338;-75
2021/09/21 04:58:56;;;;;;;;;49.75;37.00;;;;;15.91;60.43;102150.53;4923851;28;49198;-75
2021/09/21 05:01:21;;;;;;;;;48.75;38.00;;;;;15.88;60.66;102148.72;4930237;28;60365;-74
2021/09/21 05:03:47;;;;;;;;;50.50;36.00;;;;;15.85;60.67;102156.47;4926430;28;45750;-75
2021/09/21 05:06:12;;;;;;;;;50.25;38.00;;;;;15.84;60.12;102167.84;4924616;28;45460;-75
2021/09/21 05:08:38;;;;;;;;;50.75;39.25;;;;;15.82;60.29;102169.53;4933173;28;47263;-74
2021/09/21 05:11:03;;;;;;;;;47.25;39.00;;;;;15.78;60.73;102163.31;4932876;28;59376;-74
2021/09/21 05:13:28;;;;;;;;;45.75;36.25;;;;;15.75;60.24;102155.31;4922522;28;51234;-75
2021/09/21 05:15:54;;;;;;;;;52.00;39.50;;;;;15.74;60.44;102156.19;4921381;28;52646;-75
2021/09/21 05:18:19;;;;;;;;;44.75;36.00;;;;;15.73;60.32;102164.00;4908576;28;45287;-75
2021/09/21 05:20:45;;;;;;;;;41.00;34.25;;;;;15.69;60.35;102165.69;4936037;28;46073;-75
2021/09/21 05:23:10;;;;;;;;;47.50;38.25;;;;;15.63;60.08;102168.13;4932086;28;45234;-75
2021/09/21 05:25:35;;;;;;;;;47.75;37.00;;;;;15.60;60.04;102163.69;4927178;28;45194;-75
2021/09/21 05:28:02;;;;;;;;;40.75;35.50;;;;;15.59;60.31;102175.03;4915118;28;46753;-75
2021/09/21 05:30:27;;;;;;;;;45.00;36.00;;;;;15.57;59.84;102160.97;4922949;28;45466;-75
2021/09/21 05:32:53;;;;;;;;;48.00;34.50;;;;;15.56;60.11;102159.19;4918677;28;46765;-75
2021/09/21 05:35:18;;;;;;;;;45.50;36.25;;;;;15.54;59.90;102179.25;4923316;28;54891;-75
2021/09/21 05:37:43;;;;;;;;;44.75;37.50;;;;;15.52;60.16;102177.44;4931901;28;45420;-75
2021/09/21 05:40:09;;;;;;;;;43.50;36.75;;;;;15.51;59.96;102186.13;4936593;28;45392;-76
2021/09/21 05:42:36;;;;;;;;;44.75;36.25;;;;;15.48;60.11;102188.69;4932185;28;45376;-75
2021/09/21 05:45:04;;;;;;;;;44.00;36.00;;;;;15.46;60.34;102193.88;4925924;28;45440;-75
2021/09/21 05:47:29;;;;;;;;;46.00;34.25;;;;;15.48;60.25;102193.94;4928698;28;45262;-74
2021/09/21 05:49:55;;;;;;;;;44.75;34.25;;;;;15.47;59.99;102200.00;4922880;28;54054;-75
2021/09/21 05:52:20;;;;;;;;;37.50;31.75;;;;;15.46;59.99;102198.25;4922757;28;50779;-77
2021/09/21 05:54:46;;;;;;;;;47.50;38.75;;;;;15.44;59.79;102204.34;4940455;28;45725;-73
2021/09/21 05:57:11;;;;;;;;;42.25;34.25;;;;;15.43;59.73;102207.78;4923127;28;46920;-77
2021/09/21 05:59:36;;;;;;;;;41.25;34.00;;;;;15.43;59.52;102215.66;4914305;28;45890;-76
2021/09/21 06:02:02;;;;;;;;;43.00;33.50;;;;;15.38;59.50;102212.00;4926418;28;57398;-76
2021/09/21 06:04:27;;;;;;;;;41.50;32.50;;;;;15.41;59.62;102211.22;4936840;28;45246;-83
2021/09/21 06:06:53;;;;;;;;;39.25;33.00;;;;;15.40;59.79;102214.66;4932624;28;51503;-74
2021/09/21 06:09:18;;;;;;;;;37.50;33.00;;;;;15.39;59.35;102223.41;4932490;28;60620;-79
2021/09/21 06:11:43;;;;;;;;;43.75;33.25;;;;;15.36;59.85;102216.34;4945176;28;45501;-78
2021/09/21 06:14:09;;;;;;;;;40.00;33.00;;;;;15.38;59.74;102213.75;4922029;28;45705;-76
2021/09/21 06:16:34;;;;;;;;;32.25;30.25;;;;;15.40;59.18;102219.91;4917342;28;45497;-72
2021/09/21 06:19:00;;;;;;;;;31.00;29.25;;;;;15.41;59.16;102224.31;4930593;28;51555;-77
2021/09/21 06:21:25;;;;;;;;;37.00;31.00;;;;;15.42;59.09;102228.72;4934697;28;45467;-75
2021/09/21 06:23:51;;;;;;;;;37.75;31.00;;;;;15.41;58.91;102235.69;4932134;28;53489;-78
2021/09/21 06:26:16;;;;;;;;;34.75;31.25;;;;;15.42;59.03;102236.56;4927674;28;45211;-75
2021/09/21 06:28:42;;;;;;;;;30.75;25.50;;;;;15.39;58.65;102241.75;4939788;28;46010;-73
2021/09/21 06:31:07;;;;;;;;;37.25;29.75;;;;;15.41;58.61;102245.28;4931102;28;47704;-78
2021/09/21 06:33:33;;;;;;;;;31.50;29.25;;;;;15.42;58.75;102241.81;4921637;28;45441;-74
2021/09/21 06:35:58;;;;;;;;;32.50;28.00;;;;;15.44;58.58;102247.97;4934767;28;45391;-75
2021/09/21 06:38:24;;;;;;;;;34.00;30.25;;;;;15.46;58.49;102248.03;4944984;28;45987;-75
2021/09/21 06:40:49;;;;;;;;;29.00;26.25;;;;;15.48;58.17;102255.06;4946898;28;45246;-76
2021/09/21 06:43:15;;;;;;;;;36.50;31.00;;;;;15.52;58.25;102253.44;4938200;28;48004;-76
2021/09/21 06:45:40;;;;;;;;;29.75;27.00;;;;;15.53;57.74;102255.22;4938961;28;45573;-76
2021/09/21 06:48:05;;;;;;;;;31.25;29.00;;;;;15.55;57.68;102259.66;4938612;28;45982;-75
2021/09/21 06:50:31;;;;;;;;;36.25;28.50;;;;;15.58;57.31;102265.00;4921405;28;45659;-79
2021/09/21 06:52:56;;;;;;;;;28.00;25.50;;;;;15.61;57.35;102275.53;4938407;28;45439;-82
2021/09/21 06:55:22;;;;;;;;;34.25;29.50;;;;;15.68;57.68;102286.22;4938865;28;45775;-81
2021/09/21 06:57:49;;;;;;;;;33.75;26.75;;;;;15.72;56.92;102281.09;4937767;28;59060;-77
2021/09/21 07:00:14;;;;;;;;;31.25;24.00;;;;;15.71;56.55;102279.31;4938278;28;45406;-78
2021/09/21 07:02:41;;;;;;;;;29.75;26.00;;;;;15.74;56.72;102279.41;4938561;28;45435;-84
2021/09/21 07:05:07;;;;;;;;;29.50;23.25;;;;;15.81;56.71;102290.09;4938695;28;45376;-82
2021/09/21 07:07:33;;;;;;;;;25.50;22.25;;;;;15.85;56.75;102292.81;4936735;28;45690;-80
2021/09/21 07:10:01;;;;;;;;;27.00;27.00;;;;;15.93;56.06;102293.06;4938484;28;45422;-81
2021/09/21 07:12:26;;;;;;;;;27.75;22.25;;;;;16.02;56.63;102300.25;4938285;28;45286;-81
2021/09/21 07:14:52;;;;;;;;;30.00;28.00;;;;;16.10;55.93;102296.09;4938697;28;45416;-75
2021/09/21 07:17:17;;;;;;;;;25.00;23.75;;;;;16.19;55.88;102304.22;4938217;28;56934;-80
2021/09/21 07:19:43;;;;;;;;;25.00;24.50;;;;;16.28;56.06;102308.84;4937778;28;54808;-80
2021/09/21 07:22:08;;;;;;;;;23.25;20.00;;;;;16.41;55.24;102315.28;4938643;28;45812;-83
2021/09/21 07:24:33;;;;;;;;;27.50;22.75;;;;;16.53;54.80;102317.34;4938205;28;51892;-80
2021/09/21 07:26:59;;;;;;;;;34.00;23.25;;;;;16.88;54.77;102318.16;4945000;28;45470;-82
2021/09/21 07:29:24;;;;;;;;;26.75;23.00;;;;;17.86;54.13;102329.06;4942775;28;50523;-81
2021/09/21 07:31:50;;;;;;;;;22.00;19.75;;;;;18.92;52.29;102316.91;4946831;28;45281;-80
2021/09/21 07:34:15;;;;;;;;;24.75;23.25;;;;;19.97;49.58;102323.50;4947353;28;45832;-80
2021/09/21 07:36:40;;;;;;;;;19.25;18.00;;;;;20.97;49.31;102318.22;4940415;28;55312;-79
2021/09/21 07:39:06;;;;;;;;;27.00;21.75;;;;;22.06;47.67;102314.25;4922384;28;49040;-80
2021/09/21 07:41:31;;;;;;;;;21.50;16.75;;;;;23.00;46.37;102327.50;4937010;28;45487;-79
2021/09/21 07:43:57;;;;;;;;;19.75;17.75;;;;;23.89;44.38;102333.38;4936903;28;45454;-80
2021/09/21 07:46:22;;;;;;;;;22.50;19.00;;;;;24.73;42.94;102333.66;4936444;28;56131;-80
2021/09/21 07:48:48;;;;;;;;;18.50;15.50;;;;;25.52;41.52;102332.81;4918954;28;50703;-80
2021/09/21 07:51:13;;;;;;;;;19.00;15.00;;;;;26.33;40.72;102330.75;4937038;28;45439;-80
2021/09/21 07:53:38;;;;;;;;;15.75;15.50;;;;;27.04;39.38;102331.31;4936876;28;45333;-80
2021/09/21 07:56:04;;;;;;;;;19.50;17.25;;;;;27.71;38.06;102331.69;4936744;28;45589;-81
2021/09/21 07:58:29;;;;;;;;;17.50;14.25;;;;;28.31;37.46;102334.75;4936238;28;52402;-80
2021/09/21 08:00:55;;;;;;;;;16.25;14.50;;;;;28.88;36.10;102349.38;4937236;28;45424;-80
2021/09/21 08:03:24;;;;;;;;;14.75;13.50;;;;;29.31;35.78;102331.25;4936811;28;45471;-81
2021/09/21 08:05:55;;;;;;;;;16.00;13.00;;;;;29.91;33.89;102347.31;4939451;28;45549;-81
2021/09/21 08:08:20;;;;;;;;;17.75;15.50;;;;;30.44;33.08;102344.69;4939958;28;45335;-80
2021/09/21 08:10:46;;;;;;;;;14.50;13.00;;;;;31.11;33.07;102348.63;4937345;28;53843;-79
2021/09/21 08:13:11;;;;;;;;;13.50;13.00;;;;;31.76;31.95;102340.78;4922791;28;45431;-80
2021/09/21 08:15:37;;;;;;;;;18.25;14.25;;;;;32.30;31.15;102359.25;4939827;28;46161;-80
2021/09/21 08:18:02;;;;;;;;;12.25;9.50;;;;;32.49;29.25;102359.34;4922147;28;45471;-79
2021/09/21 08:20:28;;;;;;;;;12.50;10.50;;;;;32.80;29.08;102356.22;4939861;28;45355;-80
2021/09/21 08:22:54;;;;;;;;;12.75;12.00;;;;;33.05;28.26;102359.66;4940101;28;45560;-81
2021/09/21 08:25:20;;;;;;;;;11.75;10.25;;;;;31.87;28.09;102345.72;4939828;28;45488;-81
2021/09/21 08:27:45;;;;;;;;;10.50;10.50;;;;;30.21;29.46;102353.50;4919692;28;45488;-80
2021/09/21 08:30:11;;;;;;;;;13.00;12.00;;;;;28.76;29.89;102357.72;4939684;28;48513;-82
2021/09/21 08:32:37;;;;;;;;;13.50;10.25;;;;;27.48;30.79;102355.34;4940028;28;45317;-81
2021/09/21 08:35:03;;;;;;;;;13.75;12.50;;;;;26.35;31.47;102363.59;4939659;28;45373;-80
2021/09/21 08:37:29;;;;;;;;;10.25;10.00;;;;;25.42;32.51;102371.06;4939826;28;45500;-80
2021/09/21 08:39:54;;;;;;;;;13.00;10.75;;;;;24.55;33.49;102364.78;4940736;28;53124;-80
2021/09/21 08:42:19;;;;;;;;;13.00;10.00;;;;;23.88;33.85;102360.84;4940753;28;45333;-75
2021/09/21 08:44:45;;;;;;;;;11.25;10.50;;;;;23.25;34.76;102369.91;4940134;28;60044;-79
2021/09/21 08:47:10;;;;;;;;;12.00;11.00;;;;;22.74;35.90;102358.44;4941012;28;46670;-77
2021/09/21 08:49:36;;;;;;;;;11.75;9.75;;;;;22.31;36.35;102370.78;4907901;28;45613;-80
2021/09/21 08:52:01;;;;;;;;;12.75;12.75;;;;;21.95;36.71;102372.47;4941032;28;45300;-79
2021/09/21 08:54:27;;;;;;;;;15.25;10.00;;;;;21.58;36.79;102372.31;4940842;28;46336;-77
2021/09/21 08:56:55;;;;;;;;;13.50;11.75;;;;;21.26;37.73;102380.97;4940789;28;45364;-76
2021/09/21 08:59:31;;;;;;;;;12.00;12.00;;;;;21.00;38.24;102386.94;4940902;28;45409;-80
2021/09/21 09:01:56;;;;;;;;;11.00;10.00;;;;;20.76;38.47;102385.03;4940991;28;45431;-74
2021/09/21 09:04:21;;;;;;;;;14.00;9.50;;;;;20.55;38.70;102384.81;4940229;28;57999;-80
2021/09/21 09:06:53;;;;;;;;;12.00;10.50;;;;;20.38;39.52;102376.72;4940827;28;47370;-80
2021/09/21 09:09:21;;;;;;;;;12.75;11.50;;;;;20.24;39.85;102374.84;4940677;28;45461;-78
2021/09/21 09:11:47;;;;;;;;;13.00;11.75;;;;;20.13;40.40;102376.47;4940634;28;45486;-78
2021/09/21 09:14:25;;;;;;;;;13.75;11.00;;;;;20.07;40.22;102373.75;4923223;28;45447;-78
2021/09/21 09:17:07;;;;;;;;;12.75;10.25;;;;;19.98;40.81;102378.06;4940421;28;45495;-78
2021/09/21 09:19:36;;;;;;;;;11.25;10.25;;;;;19.90;40.32;102378.88;4923220;28;45524;-78
2021/09/21 09:22:15;;;;;;;;;11.50;9.00;;;;;19.78;40.67;102375.19;4940682;28;45498;-79
2021/09/21 09:24:50;;;;;;;;;12.25;9.25;;;;;19.66;40.29;102377.66;4923661;28;46027;-77
2021/09/21 09:27:17;;;;;;;;;10.50;10.50;;;;;19.58;40.80;102371.41;4940429;28;45353;-74
2021/09/21 09:29:59;;;;;;;;;14.25;11.00;;;;;19.52;40.99;102374.81;4940294;28;45464;-79
2021/09/21 09:32:25;;;;;;;;;13.25;11.25;;;;;19.51;41.92;102388.91;4939330;28;45534;-81
2021/09/21 09:34:51;;;;;;;;;13.00;10.00;;;;;19.55;41.73;102384.53;4939740;28;46083;-82
2021/09/21 09:37:18;;;;;;;;;14.25;12.50;;;;;19.56;41.46;102387.19;4939593;28;45496;-82
2021/09/21 09:39:43;;;;;;;;;13.25;12.50;;;;;19.54;41.97;102395.97;4939733;28;45483;-81
2021/09/21 09:42:11;;;;;;;;;20.75;12.50;;;;;19.52;41.37;102393.28;4919959;28;45418;-82
2021/09/21 09:44:37;;;;;;;;;18.25;13.50;;;;;19.54;41.56;102396.84;4939172;28;45488;-81
2021/09/21 09:47:04;;;;;;;;;14.25;13.00;;;;;19.53;40.77;102383.66;4939646;28;45314;-81
2021/09/21 09:49:30;;;;;;;;;18.75;13.50;;;;;19.48;41.04;102396.75;4937121;28;45320;-81
2021/09/21 09:52:02;;;;;;;;;15.00;14.25;;;;;19.40;41.36;102399.31;4939576;28;45412;-81
2021/09/21 09:54:27;;;;;;;;;15.25;14.25;;;;;19.31;41.96;102385.97;4939514;28;45471;-82
2021/09/21 09:56:53;;;;;;;;;15.25;12.50;;;;;19.26;42.00;102387.66;4939066;28;51664;-81
2021/09/21 09:59:18;;;;;;;;;15.50;14.75;;;;;19.26;42.13;102385.00;4938972;28;45367;-81
2021/09/21 10:01:44;;;;;;;;;15.00;12.75;;;;;19.23;42.50;102383.22;4922155;28;46648;-82
2021/09/21 10:04:12;;;;;;;;;13.75;13.50;;;;;19.22;42.56;102384.09;4936606;28;45518;-81
2021/09/21 10:06:38;;;;;;;;;21.50;13.75;;;;;19.21;42.78;102384.97;4939330;28;45745;-82
2021/09/21 10:09:03;;;;;;;;;13.25;11.75;;;;;19.23;43.05;102377.06;4921829;28;46392;-81
2021/09/21 10:11:29;;;;;;;;;16.75;13.25;;;;;19.20;42.47;102377.91;4936487;28;45478;-82
2021/09/21 10:13:59;;;;;;;;;19.75;15.25;;;;;19.22;42.70;102389.38;4921718;28;46320;-82
2021/09/21 10:16:25;;;;;;;;;16.50;15.00;;;;;19.23;42.66;102390.25;4939474;28;45428;-81
2021/09/21 10:18:54;;;;;;;;;17.75;15.00;;;;;19.25;43.36;102391.19;4921993;28;45392;-81
2021/09/21 10:21:31;;;;;;;;;16.50;13.50;;;;;19.29;42.97;102395.63;4939388;28;45482;-81
2021/09/21 10:24:02;;;;;;;;;16.75;16.75;;;;;19.30;42.79;102390.38;4937299;28;46752;-80
2021/09/21 10:26:27;;;;;;;;;18.75;17.00;;;;;19.35;43.12;102382.53;4922267;28;45681;-81
2021/09/21 10:28:53;;;;;;;;;21.00;20.00;;;;;19.31;43.12;102383.34;4933425;28;55118;-82
2021/09/21 10:31:20;;;;;;;;;23.25;16.75;;;;;19.28;42.82;102378.91;4921032;28;45495;-82
2021/09/21 10:33:49;;;;;;;;;15.50;15.50;;;;;19.31;43.77;102386.84;4937764;28;45480;-82
2021/09/21 10:36:25;;;;;;;;;19.00;17.50;;;;;19.34;42.99;102391.28;4937471;28;51711;-84
2021/09/21 10:38:56;;;;;;;;;18.25;16.00;;;;;19.33;42.91;102395.69;4938051;28;45492;-84
2021/09/21 10:41:22;;;;;;;;;22.25;20.00;;;;;19.35;43.28;102389.56;4938260;28;45384;-83
2021/09/21 10:44:04;;;;;;;;;19.00;17.50;;;;;19.39;43.16;102384.34;4937669;28;46651;-82
2021/09/21 10:46:30;;;;;;;;;19.00;17.50;;;;;19.45;43.55;102387.06;4937050;28;45603;-82
2021/09/21 10:49:00;;;;;;;;;21.75;20.75;;;;;19.50;43.63;102381.84;4935203;28;45433;-81
2021/09/21 10:51:28;;;;;;;;;24.25;19.25;;;;;19.57;43.21;102377.53;4920729;28;45444;-81
2021/09/21 10:54:03;;;;;;;;;22.00;18.75;;;;;19.61;43.51;102385.50;4937257;28;46517;-82
2021/09/21 10:56:29;;;;;;;;;19.00;16.75;;;;;19.67;42.86;102377.69;4937373;28;45315;-81
2021/09/21 10:58:55;;;;;;;;;18.50;18.50;;;;;19.71;43.45;102375.94;4920309;28;45373;-81
2021/09/21 11:01:20;;;;;;;;;22.25;21.00;;;;;19.84;43.10;102384.97;4920539;28;45606;-84
2021/09/21 11:03:47;;;;;;;;;20.75;17.25;;;;;19.94;42.72;102392.09;4937608;28;45472;-79
2021/09/21 11:06:14;;;;;;;;;23.00;19.25;;;;;20.03;42.66;102379.88;4904561;28;45521;-81
2021/09/21 11:08:40;;;;;;;;;20.75;18.50;;;;;20.09;42.37;102380.84;4920689;28;45435;-80
2021/09/21 11:11:06;;;;;;;;;23.25;19.25;;;;;20.21;42.04;102377.44;4937769;28;45508;-80
2021/09/21 11:13:36;;;;;;;;;24.75;20.00;;;;;20.39;41.92;102373.19;4938259;28;45405;-78
2021/09/21 11:16:06;;;;;;;;;21.75;19.50;;;;;20.45;41.35;102384.72;4938859;28;45382;-84
2021/09/21 11:18:31;;;;;;;;;20.00;19.50;;;;;20.49;41.88;102377.72;4905933;28;45491;-83